Terminal Aerodrome Forecast
Issued by NWS Wilmington, OH

Current Version | Previous Version | Text Only | Print | Product List | Glossary On
Versions: 1 2 3 4 5 6 7 8 9 10 11 12 13 14 15 16 17 18 19 20 21 22 23 24 25 26 27
135
FTUS41 KILN 230900 AAA
TAFCVG
TAF AMD
KCVG 230900Z 2309/2412 22012KT P6SM -SHRA VCTS BKN035CB OVC060
      TEMPO 2309/2310 5SM -TSRA
     FM231100 24005KT 5SM BR BKN040
     FM231300 25005KT P6SM BKN025
     FM231800 26009KT P6SM VCSH BKN035
     FM232300 29008KT P6SM -SHRA VCTS BKN035CB
     FM240200 26003KT P6SM BKN035
     FM240600 00000KT 3SM BR FEW035
     FM240900 00000KT 1SM BR FEW060=

USA.gov is the U.S. government's official web portal to all federal, state and local government web resources and services.